createdAt,value
2018-12-07T00:01:37.926Z,49.30
2018-12-07T00:04:06.845Z,47.23
2018-12-07T00:06:35.833Z,52.07
2018-12-07T00:09:06.108Z,52.17
2018-12-07T00:11:35.085Z,44.00
2018-12-07T00:14:04.149Z,45.43
2018-12-07T00:16:33.082Z,42.43
2018-12-07T00:19:02.302Z,42.03
2018-12-07T00:21:31.305Z,42.50
2018-12-07T00:24:00.185Z,38.23
2018-12-07T00:26:29.201Z,36.73
2018-12-07T00:28:58.226Z,33.37
2018-12-07T00:31:27.210Z,30.70
2018-12-07T00:33:56.229Z,33.80
2018-12-07T00:36:25.270Z,31.60
2018-12-07T00:38:54.181Z,33.37
2018-12-07T00:41:23.094Z,42.30
2018-12-07T00:43:51.977Z,38.00
2018-12-07T00:46:24.871Z,40.33
2018-12-07T00:51:36.037Z,37.50
2018-12-07T00:54:05.045Z,32.90
2018-12-07T00:56:34.073Z,38.07
2018-12-07T00:59:03.097Z,36.67
2018-12-07T01:01:32.148Z,38.20
2018-12-07T01:04:01.112Z,36.77
2018-12-07T01:06:30.009Z,29.13
2018-12-07T01:08:59.033Z,34.93
2018-12-07T01:11:27.879Z,34.60
2018-12-07T01:13:56.813Z,30.27
2018-12-07T01:16:25.850Z,31.13
2018-12-07T01:18:54.969Z,32.60
2018-12-07T01:21:24.048Z,35.00
2018-12-07T01:23:53.085Z,34.70
2018-12-07T01:26:22.047Z,34.80
2018-12-07T01:28:51.145Z,43.60
2018-12-07T01:31:20.069Z,68.93
2018-12-07T01:33:49.081Z,64.03
2018-12-07T01:36:18.090Z,51.93
2018-12-07T01:38:47.130Z,47.40
2018-12-07T01:41:16.096Z,63.87
2018-12-07T01:43:45.105Z,58.50
2018-12-07T01:46:14.013Z,52.33
2018-12-07T01:48:42.946Z,50.17
2018-12-07T01:51:11.843Z,46.97
2018-12-07T01:53:40.958Z,41.63
2018-12-07T01:56:09.879Z,42.40
2018-12-07T01:58:38.797Z,40.73
2018-12-07T02:01:07.802Z,42.43
2018-12-07T02:03:36.729Z,39.93
2018-12-07T02:06:05.643Z,39.03
2018-12-07T02:08:34.532Z,40.50
2018-12-07T02:11:03.494Z,46.47
2018-12-07T02:13:32.415Z,39.97
2018-12-07T02:16:04.376Z,42.97
2018-12-07T02:18:33.393Z,40.20
2018-12-07T02:21:02.311Z,45.33
2018-12-07T02:23:31.809Z,44.10
2018-12-07T02:26:00.613Z,39.70
2018-12-07T02:28:29.750Z,48.77
2018-12-07T02:30:58.826Z,42.87
2018-12-07T02:33:27.810Z,38.73
2018-12-07T02:35:56.694Z,52.27
2018-12-07T02:38:25.714Z,46.87
2018-12-07T02:40:54.615Z,46.07
2018-12-07T02:43:23.525Z,50.30
2018-12-07T02:45:52.510Z,42.03
2018-12-07T02:48:21.562Z,47.03
2018-12-07T02:50:50.611Z,46.57
2018-12-07T02:53:19.677Z,43.07
2018-12-07T02:55:48.619Z,47.00
2018-12-07T02:58:17.601Z,42.93
2018-12-07T03:00:46.521Z,41.60
2018-12-07T03:03:15.559Z,45.77
2018-12-07T03:05:44.616Z,40.87
2018-12-07T03:08:13.549Z,39.73
2018-12-07T03:10:42.481Z,42.90
2018-12-07T03:13:11.496Z,39.57
2018-12-07T03:15:40.561Z,39.20
2018-12-07T03:18:20.380Z,38.97
2018-12-07T03:20:49.741Z,42.60
2018-12-07T03:23:18.754Z,44.13
2018-12-07T03:25:47.689Z,49.83
2018-12-07T03:28:16.732Z,45.57
2018-12-07T03:30:45.688Z,45.77
2018-12-07T03:33:14.798Z,46.80
2018-12-07T03:35:43.723Z,45.43
2018-12-07T03:38:12.757Z,42.73
2018-12-07T03:40:41.796Z,50.43
2018-12-07T03:43:10.733Z,46.93
2018-12-07T03:45:39.638Z,51.00
2018-12-07T03:48:08.641Z,45.73
2018-12-07T03:50:37.531Z,42.60
2018-12-07T03:53:06.433Z,41.67
2018-12-07T03:55:35.467Z,45.30
2018-12-07T03:58:04.386Z,40.83
2018-12-07T04:00:33.446Z,39.70
2018-12-07T04:03:02.447Z,37.17
2018-12-07T04:05:31.474Z,38.77
2018-12-07T04:08:00.369Z,33.43
2018-12-07T04:10:29.294Z,33.23
2018-12-07T04:12:58.306Z,35.93
2018-12-07T04:15:27.261Z,42.77
2018-12-07T04:17:56.241Z,32.80
2018-12-07T04:20:25.137Z,29.40
2018-12-07T04:22:54.075Z,38.77
2018-12-07T04:25:23.098Z,35.53
2018-12-07T04:27:52.130Z,36.77
2018-12-07T04:30:28.075Z,33.47
2018-12-07T04:32:57.136Z,53.23
2018-12-07T04:35:26.137Z,36.97
2018-12-07T04:37:55.041Z,43.93
2018-12-07T04:40:23.957Z,38.17
2018-12-07T04:42:53.259Z,35.57
2018-12-07T04:45:22.209Z,38.43
2018-12-07T04:47:51.254Z,29.50
2018-12-07T04:50:20.267Z,29.47
2018-12-07T04:52:49.275Z,33.93
2018-12-07T04:55:18.341Z,32.27
2018-12-07T04:57:47.267Z,30.50
2018-12-07T05:00:16.185Z,33.93
2018-12-07T05:02:45.110Z,31.83
2018-12-07T05:05:14.162Z,34.63
2018-12-07T05:07:43.615Z,32.43
2018-12-07T05:10:12.793Z,37.00
2018-12-07T05:12:41.986Z,31.50
2018-12-07T05:15:10.904Z,36.73
2018-12-07T05:17:39.930Z,35.03
2018-12-07T05:20:08.851Z,33.43
2018-12-07T05:22:37.737Z,32.53
2018-12-07T05:25:06.639Z,32.73
2018-12-07T05:27:35.751Z,34.47
2018-12-07T05:30:06.311Z,31.63
2018-12-07T05:32:35.244Z,32.27
2018-12-07T05:35:04.703Z,35.67
2018-12-07T05:37:33.801Z,42.80
2018-12-07T05:40:03.330Z,34.70
2018-12-07T05:42:32.253Z,36.13
2018-12-07T05:45:01.252Z,34.50
2018-12-07T05:47:30.164Z,34.27
2018-12-07T05:49:59.090Z,43.77
2018-12-07T05:52:27.897Z,38.63
2018-12-07T05:54:56.815Z,41.17
2018-12-07T05:57:25.750Z,46.63
2018-12-07T05:59:54.685Z,39.43
2018-12-07T06:02:23.744Z,49.70
2018-12-07T06:04:52.661Z,43.23
2018-12-07T06:07:21.566Z,52.70
2018-12-07T06:09:50.491Z,49.87
2018-12-07T06:12:19.357Z,51.23
2018-12-07T06:14:48.389Z,60.07
2018-12-07T06:17:17.347Z,54.83
2018-12-07T06:19:46.310Z,68.87
2018-12-07T06:22:15.846Z,60.80
2018-12-07T06:24:44.856Z,71.10
2018-12-07T06:27:13.789Z,73.53
2018-12-07T06:29:42.701Z,85.57
2018-12-07T06:32:11.817Z,91.80
2018-12-07T06:34:40.842Z,84.63
2018-12-07T06:37:09.766Z,87.00
2018-12-07T06:39:38.698Z,100.30
2018-12-07T06:42:07.778Z,103.50
2018-12-07T06:44:36.706Z,96.67
2018-12-07T06:47:05.550Z,115.33
2018-12-07T06:49:34.645Z,125.50
2018-12-07T06:52:03.889Z,128.47
2018-12-07T06:54:32.834Z,130.27
2018-12-07T06:57:01.854Z,133.10
2018-12-07T06:59:30.893Z,127.43
2018-12-07T07:01:59.944Z,145.90
2018-12-07T07:04:28.889Z,136.87
2018-12-07T07:06:57.829Z,160.13
2018-12-07T07:09:26.646Z,145.03
2018-12-07T07:11:55.557Z,137.87
2018-12-07T07:14:24.527Z,96.13
2018-12-07T07:16:53.789Z,91.20
2018-12-07T07:19:22.715Z,122.83
2018-12-07T07:21:51.623Z,115.30
2018-12-07T07:24:20.570Z,103.67
2018-12-07T07:26:49.482Z,92.63
2018-12-07T07:29:18.286Z,76.27
2018-12-07T07:31:47.202Z,71.60
2018-12-07T07:34:16.113Z,63.17
2018-12-07T07:36:45.038Z,58.23
2018-12-07T07:39:14.286Z,74.00
2018-12-07T07:41:43.376Z,65.10
2018-12-07T07:44:12.476Z,79.90
2018-12-07T07:46:41.769Z,88.27
2018-12-07T07:49:10.693Z,65.37
2018-12-07T07:51:39.642Z,38.93
2018-12-07T07:54:08.965Z,33.33
2018-12-07T07:56:37.941Z,32.07
2018-12-07T07:59:06.791Z,38.97
2018-12-07T08:01:36.168Z,44.70
2018-12-07T08:04:05.114Z,41.63
2018-12-07T08:06:34.684Z,53.43
2018-12-07T08:09:06.346Z,44.87
2018-12-07T08:11:35.270Z,39.50
2018-12-07T08:14:04.308Z,51.97
2018-12-07T08:16:33.358Z,46.77
2018-12-07T08:19:02.323Z,41.50
2018-12-07T08:21:31.253Z,59.50
2018-12-07T08:24:00.098Z,40.40
2018-12-07T08:26:29.061Z,41.23
2018-12-07T08:28:58.002Z,41.17
2018-12-07T08:31:26.978Z,39.37
2018-12-07T08:33:55.925Z,43.13
2018-12-07T08:36:24.868Z,41.73
2018-12-07T08:38:53.810Z,45.77
2018-12-07T08:41:22.753Z,40.43
2018-12-07T08:43:51.601Z,43.73
2018-12-07T08:46:20.537Z,40.43
2018-12-07T08:48:49.695Z,41.87
2018-12-07T08:51:19.017Z,52.87
2018-12-07T08:53:48.067Z,41.67
2018-12-07T08:56:16.889Z,42.97
2018-12-07T08:58:45.845Z,43.17
2018-12-07T09:01:14.774Z,43.43
2018-12-07T09:03:43.717Z,47.20
2018-12-07T09:06:12.966Z,45.67
2018-12-07T09:08:41.913Z,49.53
2018-12-07T09:11:10.957Z,40.50
2018-12-07T09:13:40.053Z,41.50
2018-12-07T09:16:08.989Z,42.63
2018-12-07T09:18:37.893Z,41.03
2018-12-07T09:21:07.818Z,51.00
2018-12-07T09:23:36.629Z,39.17
2018-12-07T09:26:05.605Z,36.73
2018-12-07T09:28:34.633Z,38.03
2018-12-07T09:31:03.647Z,33.07
2018-12-07T09:33:32.610Z,34.53
2018-12-07T09:36:01.622Z,36.43
2018-12-07T09:38:30.714Z,42.87
2018-12-07T09:40:59.865Z,36.97
2018-12-07T09:43:29.013Z,33.73
2018-12-07T09:45:57.945Z,36.90
2018-12-07T09:48:26.835Z,33.10
2018-12-07T09:50:55.785Z,31.17
2018-12-07T09:53:25.186Z,33.03
2018-12-07T09:55:54.142Z,36.30
2018-12-07T09:58:23.098Z,34.07
2018-12-07T10:00:51.887Z,33.77
2018-12-07T10:03:20.806Z,34.73
2018-12-07T10:05:49.821Z,35.70
2018-12-07T10:08:18.843Z,33.77
2018-12-07T10:10:47.904Z,28.53
2018-12-07T10:13:16.940Z,27.93
2018-12-07T10:15:45.773Z,30.87
2018-12-07T10:18:14.762Z,29.47
2018-12-07T10:20:43.573Z,25.63
2018-12-07T10:23:12.493Z,28.80
2018-12-07T10:25:41.405Z,29.97
2018-12-07T10:28:10.341Z,30.43
2018-12-07T10:30:39.177Z,33.80
2018-12-07T10:33:08.123Z,28.43
2018-12-07T10:35:37.042Z,35.40
2018-12-07T10:38:05.941Z,32.83
2018-12-07T10:40:34.838Z,32.77
2018-12-07T10:43:03.702Z,28.00
2018-12-07T10:45:32.643Z,33.77
2018-12-07T10:48:01.672Z,29.57
2018-12-07T10:50:30.490Z,26.80
2018-12-07T10:52:59.689Z,29.60
2018-12-07T10:55:28.591Z,26.83
2018-12-07T10:57:57.497Z,28.07
2018-12-07T11:00:31.941Z,25.77
2018-12-07T11:03:06.502Z,22.67
2018-12-07T11:05:40.927Z,23.97
2018-12-07T11:08:15.074Z,29.00
2018-12-07T11:10:49.670Z,22.77
2018-12-07T11:13:24.078Z,20.73
2018-12-07T11:15:58.635Z,22.33
2018-12-07T11:18:33.044Z,23.47
2018-12-07T11:21:07.530Z,20.20
2018-12-07T11:23:41.942Z,19.60
2018-12-07T11:26:16.381Z,17.87
2018-12-07T11:28:50.669Z,15.83
2018-12-07T11:31:25.257Z,16.87
2018-12-07T11:34:01.112Z,18.63
2018-12-07T11:36:30.054Z,18.73
2018-12-07T11:38:58.955Z,22.63
2018-12-07T11:41:27.881Z,20.70
2018-12-07T11:43:56.925Z,18.50
2018-12-07T11:46:25.953Z,19.80
2018-12-07T11:48:54.792Z,22.30
2018-12-07T11:51:24.210Z,22.93
2018-12-07T11:53:53.238Z,20.57
2018-12-07T11:56:22.666Z,23.53
2018-12-07T11:58:51.605Z,18.30
2018-12-07T12:01:23.596Z,24.97
2018-12-07T12:03:53.190Z,25.03
2018-12-07T12:06:22.137Z,25.50
2018-12-07T12:08:51.052Z,24.47
2018-12-07T12:11:20.148Z,21.30
2018-12-07T12:13:48.971Z,20.37
2018-12-07T12:16:17.874Z,25.27
2018-12-07T12:18:46.813Z,20.23
2018-12-07T12:21:15.758Z,23.43
2018-12-07T12:23:44.593Z,32.50
2018-12-07T12:26:14.260Z,51.43
2018-12-07T12:28:43.417Z,39.70
2018-12-07T12:31:12.476Z,26.37
2018-12-07T12:33:41.925Z,21.17
2018-12-07T12:36:17.066Z,19.37
2018-12-07T12:38:41.905Z,20.83
2018-12-07T12:41:10.809Z,21.87
2018-12-07T12:43:39.844Z,19.13
2018-12-07T12:46:08.805Z,20.17
2018-12-07T12:48:37.708Z,24.47
2018-12-07T12:51:06.709Z,22.60
2018-12-07T12:53:35.647Z,20.53
2018-12-07T12:56:04.566Z,21.30
2018-12-07T12:58:33.698Z,23.73
2018-12-07T13:01:02.675Z,20.17
2018-12-07T13:03:31.790Z,26.77
2018-12-07T13:06:00.702Z,20.50
2018-12-07T13:08:29.833Z,25.07
2018-12-07T13:10:58.717Z,26.60
2018-12-07T13:13:27.510Z,30.43
2018-12-07T13:15:56.441Z,28.27
2018-12-07T13:18:25.448Z,22.77
2018-12-07T13:20:54.463Z,22.87
2018-12-07T13:23:23.662Z,30.80
2018-12-07T13:25:52.641Z,30.67
2018-12-07T13:28:21.566Z,23.03
2018-12-07T13:30:50.617Z,22.53
2018-12-07T13:33:19.607Z,28.40
2018-12-07T13:35:48.722Z,28.53
2018-12-07T13:38:17.743Z,33.37
2018-12-07T13:40:46.757Z,31.07
2018-12-07T13:43:16.025Z,38.77
2018-12-07T13:45:45.155Z,42.47
2018-12-07T13:48:14.598Z,33.77
2018-12-07T13:50:43.701Z,33.77
2018-12-07T13:53:13.838Z,32.17
2018-12-07T13:55:42.909Z,32.40
2018-12-07T13:58:12.098Z,26.13
2018-12-07T14:00:41.889Z,30.70
2018-12-07T14:03:11.371Z,31.53
2018-12-07T14:05:40.882Z,35.03
2018-12-07T14:08:09.915Z,30.63
2018-12-07T14:10:38.953Z,32.80
2018-12-07T14:13:09.138Z,30.03
2018-12-07T14:15:38.837Z,37.50
2018-12-07T14:18:08.257Z,36.03
2018-12-07T14:20:37.380Z,34.57
2018-12-07T14:23:06.473Z,60.97
2018-12-07T14:25:36.064Z,65.93
2018-12-07T14:28:05.635Z,56.80
2018-12-07T14:30:36.139Z,43.73
2018-12-07T14:33:05.519Z,51.33
2018-12-07T14:35:34.974Z,31.57
2018-12-07T14:38:04.730Z,33.73
2018-12-07T14:40:33.973Z,29.13
2018-12-07T14:43:03.259Z,28.00
2018-12-07T14:45:32.542Z,26.03
2018-12-07T14:48:01.841Z,30.00
2018-12-07T14:50:31.195Z,40.43
2018-12-07T14:53:00.413Z,38.53
2018-12-07T14:55:30.038Z,40.20
2018-12-07T14:57:59.230Z,37.60
2018-12-07T15:00:29.545Z,31.93
2018-12-07T15:02:59.130Z,27.73
2018-12-07T15:05:28.459Z,28.13
2018-12-07T15:07:58.155Z,36.43
2018-12-07T15:10:27.728Z,23.43
2018-12-07T15:12:57.069Z,26.37
2018-12-07T15:15:26.419Z,31.77
2018-12-07T15:17:55.770Z,29.43
2018-12-07T15:20:25.018Z,33.23
2018-12-07T15:22:54.095Z,32.87
2018-12-07T15:25:23.693Z,31.20
2018-12-07T15:27:52.786Z,22.73
2018-12-07T15:30:22.334Z,24.60
2018-12-07T15:32:51.378Z,34.10
2018-12-07T15:35:20.482Z,31.77
2018-12-07T15:37:49.707Z,37.07
2018-12-07T15:40:18.986Z,35.27
2018-12-07T15:42:48.369Z,36.77
2018-12-07T15:45:17.714Z,40.87
2018-12-07T15:47:47.666Z,35.77
2018-12-07T15:50:24.692Z,38.10
2018-12-07T15:52:47.835Z,42.93
2018-12-07T15:55:17.786Z,40.10
2018-12-07T15:57:47.020Z,37.63
2018-12-07T16:00:16.245Z,42.97
2018-12-07T16:02:45.613Z,35.13
2018-12-07T16:05:14.979Z,37.40
2018-12-07T16:07:44.318Z,36.40
2018-12-07T16:10:13.943Z,35.70
2018-12-07T16:12:43.107Z,30.40
2018-12-07T16:15:12.113Z,41.83
2018-12-07T16:17:41.991Z,37.03
2018-12-07T16:20:14.793Z,36.40
2018-12-07T16:22:44.514Z,38.70
2018-12-07T16:25:14.331Z,43.33
2018-12-07T16:27:43.967Z,44.57
2018-12-07T16:30:12.963Z,42.57
2018-12-07T16:32:42.085Z,46.30
2018-12-07T16:35:11.462Z,41.87
2018-12-07T16:37:40.960Z,51.17
2018-12-07T16:40:11.026Z,56.50
2018-12-07T16:42:40.512Z,55.23
2018-12-07T16:45:10.097Z,56.83
2018-12-07T16:47:39.143Z,59.70
2018-12-07T16:50:08.451Z,80.63
2018-12-07T16:52:37.653Z,77.27
2018-12-07T16:55:06.824Z,67.00
2018-12-07T16:57:35.925Z,58.37
2018-12-07T17:00:05.818Z,47.33
2018-12-07T17:02:35.229Z,55.30
2018-12-07T17:05:06.131Z,44.10
2018-12-07T17:07:35.273Z,44.93
2018-12-07T17:10:05.366Z,45.00
2018-12-07T17:12:34.555Z,44.40
2018-12-07T17:15:03.864Z,41.60
2018-12-07T17:17:33.018Z,49.40
2018-12-07T17:20:02.141Z,49.50
2018-12-07T17:22:32.225Z,43.97
2018-12-07T17:25:01.755Z,38.20
2018-12-07T17:27:31.103Z,42.90
2018-12-07T17:30:00.441Z,57.30
2018-12-07T17:32:29.477Z,57.40
2018-12-07T17:34:59.037Z,63.97
2018-12-07T17:37:28.214Z,82.17
2018-12-07T17:39:57.316Z,77.77
2018-12-07T17:42:29.705Z,65.97
2018-12-07T17:44:59.380Z,81.17
2018-12-07T17:47:28.446Z,100.40
2018-12-07T17:49:57.537Z,120.57
2018-12-07T17:52:26.553Z,112.40
2018-12-07T17:54:55.793Z,115.73
2018-12-07T17:57:24.870Z,141.10
2018-12-07T17:59:53.935Z,143.50
2018-12-07T18:02:23.100Z,173.60
2018-12-07T18:04:52.231Z,149.40
2018-12-07T18:07:21.756Z,121.63
2018-12-07T18:09:50.862Z,128.30
2018-12-07T18:12:20.213Z,154.10
2018-12-07T18:14:49.949Z,148.70
2018-12-07T18:17:19.000Z,144.23
2018-12-07T18:19:48.215Z,143.37
2018-12-07T18:22:18.138Z,161.77
2018-12-07T18:24:47.365Z,170.13
2018-12-07T18:27:16.887Z,159.17
2018-12-07T18:29:46.734Z,186.33
2018-12-07T18:32:16.326Z,199.60
2018-12-07T18:34:45.586Z,204.90
2018-12-07T18:37:14.881Z,203.40
2018-12-07T18:39:44.335Z,200.83
2018-12-07T18:42:13.671Z,204.30
2018-12-07T18:44:43.068Z,177.07
2018-12-07T18:47:12.526Z,177.80
2018-12-07T18:49:41.526Z,173.50
2018-12-07T18:52:10.803Z,168.17
2018-12-07T18:54:40.487Z,183.97
2018-12-07T18:57:10.896Z,188.57
2018-12-07T18:59:40.085Z,193.13
2018-12-07T19:02:09.319Z,200.57
2018-12-07T19:04:38.559Z,196.07
2018-12-07T19:07:08.819Z,182.67
2018-12-07T19:09:38.637Z,205.23
2018-12-07T19:12:08.813Z,208.70
2018-12-07T19:14:38.942Z,182.27
2018-12-07T19:17:08.131Z,150.70
2018-12-07T19:19:38.552Z,140.23
2018-12-07T19:22:08.549Z,120.60
2018-12-07T19:24:38.180Z,107.37
2018-12-07T19:27:07.968Z,105.43
2018-12-07T19:29:36.970Z,105.87
2018-12-07T19:32:06.284Z,111.57
2018-12-07T19:34:35.714Z,128.23
2018-12-07T19:37:05.248Z,139.37
2018-12-07T19:39:34.511Z,149.23
2018-12-07T19:42:03.451Z,159.43
2018-12-07T19:44:32.463Z,174.33
2018-12-07T19:47:01.666Z,196.27
2018-12-07T19:49:31.906Z,220.77
2018-12-07T19:52:01.714Z,211.80
2018-12-07T19:54:30.826Z,215.80
2018-12-07T19:56:59.745Z,208.63
2018-12-07T19:59:28.828Z,175.03
2018-12-07T20:01:57.904Z,166.97
2018-12-07T20:04:27.519Z,155.27
2018-12-07T20:06:56.650Z,173.93
2018-12-07T20:09:25.883Z,176.27
2018-12-07T20:11:55.089Z,180.27
2018-12-07T20:14:24.578Z,204.53
2018-12-07T20:16:53.993Z,193.03
2018-12-07T20:19:23.132Z,203.33
2018-12-07T20:21:52.078Z,202.00
2018-12-07T20:24:20.993Z,209.17
2018-12-07T20:26:50.277Z,206.30
2018-12-07T20:29:20.097Z,212.73
2018-12-07T20:31:49.166Z,210.70
2018-12-07T20:34:18.441Z,200.20
2018-12-07T20:36:48.071Z,193.27
2018-12-07T20:39:17.237Z,184.07
2018-12-07T20:41:46.497Z,188.33
2018-12-07T20:44:15.675Z,201.73
2018-12-07T20:46:45.301Z,186.23
2018-12-07T20:49:14.655Z,172.10
2018-12-07T20:51:44.079Z,179.13
2018-12-07T20:54:13.499Z,191.93
2018-12-07T20:56:42.953Z,199.43
2018-12-07T20:59:12.558Z,185.47
2018-12-07T21:01:41.611Z,184.43
2018-12-07T21:04:37.045Z,183.50
2018-12-07T21:07:37.586Z,178.03
2018-12-07T21:10:35.314Z,171.07
2018-12-07T21:13:44.896Z,163.73
2018-12-07T21:17:18.822Z,171.33
2018-12-07T21:19:58.140Z,165.43
2018-12-07T21:22:28.736Z,168.37
2018-12-07T21:24:58.107Z,173.57
2018-12-07T21:27:27.591Z,196.07
2018-12-07T21:33:32.176Z,206.67
2018-12-07T21:36:45.222Z,210.83
2018-12-07T21:39:22.619Z,206.07
2018-12-07T21:41:51.792Z,213.83
2018-12-07T21:44:20.914Z,201.73
2018-12-07T21:46:50.012Z,186.43
2018-12-07T21:49:18.974Z,170.43
2018-12-07T21:51:54.229Z,189.73
2018-12-07T21:54:30.141Z,188.23
2018-12-07T21:56:59.086Z,177.40
2018-12-07T21:59:28.027Z,144.63
2018-12-07T22:01:57.267Z,125.37
2018-12-07T22:04:26.442Z,103.20
2018-12-07T22:06:55.552Z,100.97
2018-12-07T22:09:24.651Z,101.63
2018-12-07T22:11:53.757Z,98.03
2018-12-07T22:14:22.817Z,90.60
2018-12-07T22:16:52.209Z,87.77
2018-12-07T22:19:21.532Z,76.40
2018-12-07T22:21:50.497Z,73.67
2018-12-07T22:24:19.587Z,57.47
2018-12-07T22:26:48.673Z,72.17
2018-12-07T22:29:17.877Z,103.73
2018-12-07T22:31:47.138Z,112.30
2018-12-07T22:34:16.370Z,94.77
2018-12-07T22:36:45.673Z,95.33
2018-12-07T22:39:15.330Z,88.73
2018-12-07T22:41:44.501Z,75.60
2018-12-07T22:44:13.541Z,77.53
2018-12-07T22:46:42.605Z,67.50
2018-12-07T22:49:11.563Z,73.23
2018-12-07T22:51:40.456Z,68.53
2018-12-07T22:54:09.578Z,72.87
2018-12-07T22:56:38.810Z,73.50
2018-12-07T22:59:07.705Z,70.93
2018-12-07T23:01:36.748Z,77.60
2018-12-07T23:04:05.874Z,78.03
2018-12-07T23:06:34.874Z,74.77
2018-12-07T23:09:06.117Z,72.20
2018-12-07T23:11:35.128Z,73.33
2018-12-07T23:14:04.012Z,66.93
2018-12-07T23:16:33.050Z,73.67
2018-12-07T23:19:02.088Z,73.90
2018-12-07T23:21:30.988Z,71.50
2018-12-07T23:23:59.901Z,62.93
2018-12-07T23:26:28.868Z,66.37
2018-12-07T23:28:57.664Z,60.47
2018-12-07T23:31:26.933Z,49.80
2018-12-07T23:33:55.996Z,49.63
2018-12-07T23:36:24.989Z,44.60
2018-12-07T23:38:53.896Z,51.43
2018-12-07T23:41:22.913Z,57.43
2018-12-07T23:43:51.926Z,61.60
2018-12-07T23:46:20.865Z,62.17
2018-12-07T23:48:50.667Z,62.43
2018-12-07T23:51:19.591Z,58.00
2018-12-07T23:53:48.594Z,72.57
2018-12-07T23:56:17.490Z,73.27
2018-12-07T23:58:46.641Z,75.83
